»·PEaware :: N285 KYKM-KGEG

N285 :: KYKM-KGEG

FLIGHT INFORMATION

Flight Status: Arrived
Operator: Privately registered:
United States
More flights under this callsign
Pilot: Leo F. (613)
Aircraft: BEECH AIRCRAFT SUPER KING AIR COMMUTER
(BE20)
More flights by this aircraft type
Origin: KYKM Yakima Air Term/Mcallister
United States
Destination: KGEG Spokane Intl
United States
More flights between these airports :: More routes between these airports
Route: +WENAS7 RUBEL V448 MWH ZOOMR1
File this flight plan on PilotEdge
Remarks:
Altitude:
(Current/Filed)
15,000ft
Speed:
(Current/Filed)
270kts
Departed: 26-Jul-18 08:57 AM
Arrived: 26-Jul-18 09:42 AM
Distance/Time
Traveled:
138nm/0:45
Distance/Time
To Go:
Arrived

Flight Plot

Page will automatically refresh every two minutes.

Flight plan parsing failed; only flown route is shown


Map Options




Map Legend


Flown Route
Filed Route
Departure Airport
Arrival Airport
Navaid (VOR, NDB)
Fix

Horizontal Profiles

Position Reports

Time Latitude Longitude Heading Altitude Ground
Speed
26-Jul-18 08:14 46.569755 -120.538639 220 1099ft 0kts
26-Jul-18 08:15 46.569752 -120.538642 220 1099ft 0kts
26-Jul-18 08:16 46.569750 -120.538645 220 1099ft 0kts
26-Jul-18 08:17 46.569717 -120.538686 220 1099ft 0kts
26-Jul-18 08:18 46.569715 -120.538688 220 1099ft 0kts
26-Jul-18 08:19 46.570655 -120.535592 272 1099ft 11kts
26-Jul-18 08:20 46.570537 -120.534569 281 1098ft 0kts
26-Jul-18 08:21 46.570790 -120.536952 270 1098ft 22kts
26-Jul-18 08:22 46.570418 -120.538926 207 1099ft 0kts
26-Jul-18 08:31 46.570077 -120.537972 0 1099ft 0kts
26-Jul-18 08:32 46.570081 -120.537972 0 1099ft 0kts
26-Jul-18 08:33 46.570161 -120.538262 225 1099ft 0kts
26-Jul-18 08:34 46.570159 -120.538265 225 1099ft 0kts
26-Jul-18 08:35 46.570156 -120.538269 225 1099ft 0kts
26-Jul-18 08:36 46.570154 -120.538272 225 1099ft 0kts
26-Jul-18 08:37 46.570152 -120.538276 225 1099ft 0kts
26-Jul-18 08:38 46.570149 -120.538279 225 1099ft 0kts
26-Jul-18 08:39 46.570147 -120.538282 225 1099ft 0kts
26-Jul-18 08:40 46.570144 -120.538286 225 1099ft 0kts
26-Jul-18 08:41 46.570142 -120.538289 225 1099ft 0kts
26-Jul-18 08:42 46.570140 -120.538293 225 1099ft 0kts
26-Jul-18 08:43 46.570137 -120.538296 225 1099ft 0kts
26-Jul-18 08:44 46.570135 -120.538300 225 1099ft 0kts
26-Jul-18 08:45 46.570133 -120.538303 225 1099ft 0kts
26-Jul-18 08:46 46.570130 -120.538307 225 1099ft 0kts
26-Jul-18 08:47 46.570128 -120.538310 225 1099ft 0kts
26-Jul-18 08:48 46.570126 -120.538314 225 1099ft 0kts
26-Jul-18 08:49 46.570123 -120.538317 225 1099ft 0kts
26-Jul-18 08:50 46.570121 -120.538321 225 1099ft 0kts
26-Jul-18 08:51 46.570119 -120.538324 225 1099ft 0kts
26-Jul-18 08:52 46.569376 -120.538615 103 1099ft 2kts
26-Jul-18 08:53 46.568186 -120.538757 178 1099ft 0kts
26-Jul-18 08:54 46.566143 -120.531232 156 1099ft 0kts
26-Jul-18 08:55 46.566140 -120.531230 156 1099ft 0kts
26-Jul-18 08:56 46.566137 -120.531228 156 1099ft 0kts
26-Jul-18 08:57 46.565798 -120.532544 289 1099ft 29kts
26-Jul-18 08:58 46.574923 -120.571237 289 1441ft 180kts
26-Jul-18 08:59 46.605039 -120.631127 325 3343ft 198kts
26-Jul-18 09:00 46.664406 -120.657453 4 3400ft 231kts
26-Jul-18 09:01 46.702337 -120.608107 69 5198ft 163kts
26-Jul-18 09:02 46.710893 -120.548566 85 7146ft 139kts
26-Jul-18 09:03 46.715741 -120.480062 82 9500ft 149kts
26-Jul-18 09:04 46.717311 -120.423754 94 10722ft 177kts
26-Jul-18 09:05 46.704628 -120.352759 117 12552ft 187kts
26-Jul-18 09:06 46.673797 -120.288192 139 14356ft 195kts
26-Jul-18 09:07 46.665273 -120.213767 43 15015ft 243kts
26-Jul-18 09:08 46.725015 -120.154568 31 14994ft 270kts
26-Jul-18 09:09 46.787479 -120.090422 42 14997ft 279kts
26-Jul-18 09:10 46.836895 -120.001221 50 15004ft 285kts
26-Jul-18 09:11 46.885039 -119.907871 51 14979ft 287kts
26-Jul-18 09:12 46.932778 -119.814844 51 14979ft 284kts
26-Jul-18 09:13 46.980252 -119.722082 51 14976ft 284kts
26-Jul-18 09:14 47.027686 -119.629165 51 14980ft 285kts
26-Jul-18 09:15 47.079216 -119.540551 45 14976ft 285kts
26-Jul-18 09:16 47.131654 -119.453003 46 14977ft 284kts
26-Jul-18 09:17 47.183139 -119.364818 46 14979ft 284kts
26-Jul-18 09:18 47.224169 -119.265341 66 14992ft 289kts
26-Jul-18 09:19 47.252131 -119.155096 69 13845ft 292kts
26-Jul-18 09:20 47.280501 -119.041744 69 11845ft 295kts
26-Jul-18 09:21 47.308530 -118.933961 63 10982ft 258kts
26-Jul-18 09:22 47.330795 -118.840297 72 11004ft 234kts
26-Jul-18 09:23 47.349168 -118.748485 73 11007ft 229kts
26-Jul-18 09:24 47.366669 -118.657324 73 10996ft 226kts
26-Jul-18 09:25 47.387266 -118.570323 68 10979ft 224kts
26-Jul-18 09:26 47.409509 -118.482973 68 10980ft 226kts
26-Jul-18 09:27 47.431829 -118.395110 68 10987ft 227kts
26-Jul-18 09:28 47.454264 -118.306726 68 10991ft 228kts
26-Jul-18 09:29 47.473914 -118.216787 80 11006ft 228kts
26-Jul-18 09:30 47.481208 -118.116297 84 9788ft 260kts
26-Jul-18 09:31 47.487669 -118.011087 84 9011ft 244kts
26-Jul-18 09:32 47.493446 -117.914745 84 9003ft 226kts
26-Jul-18 09:33 47.499311 -117.815689 84 7707ft 255kts
26-Jul-18 09:34 47.504945 -117.712458 84 7010ft 237kts
26-Jul-18 09:35 47.510272 -117.611314 84 6020ft 239kts
26-Jul-18 09:36 47.514994 -117.517974 84 6010ft 218kts
26-Jul-18 09:37 47.519462 -117.428870 84 6007ft 209kts
26-Jul-18 09:38 47.543928 -117.370035 34 4686ft 183kts
26-Jul-18 09:39 47.585590 -117.366729 323 3556ft 135kts
26-Jul-18 09:40 47.601811 -117.408214 290 3381ft 116kts
26-Jul-18 09:41 47.612326 -117.455162 289 3365ft 126kts
26-Jul-18 09:42 47.616618 -117.509281 271 2638ft 114kts
26-Jul-18 09:43 47.616464 -117.536394 230 2376ft 20kts
26-Jul-18 09:44 47.616169 -117.536914 225 2376ft 0kts
26-Jul-18 09:45 47.614224 -117.535447 134 2376ft 11kts

Navigation Log

Ident Type
Flight plan parsing failed, navigation log unavailable